createdAt,value
2022-12-23T00:01:16.780Z,61.52
2022-12-23T00:04:19.710Z,61.64
2022-12-23T00:07:22.555Z,62.02
2022-12-23T00:10:25.335Z,62.36
2022-12-23T00:13:47.049Z,61.42
2022-12-23T00:16:50.855Z,62.44
2022-12-23T00:19:54.111Z,62.51
2022-12-23T00:23:05.976Z,63.12
2022-12-23T00:26:16.676Z,62.92
2022-12-23T00:29:19.447Z,62.52
2022-12-23T00:32:22.268Z,62.95
2022-12-23T00:35:25.118Z,63.80
2022-12-23T00:38:47.183Z,63.38
2022-12-23T00:42:08.503Z,63.29
2022-12-23T00:45:17.388Z,63.47
2022-12-23T00:48:38.725Z,63.33
2022-12-23T00:51:41.587Z,63.37
2022-12-23T00:54:44.570Z,63.46
2022-12-23T00:57:47.491Z,64.38
2022-12-23T01:01:08.976Z,62.82
2022-12-23T01:04:33.129Z,61.59
2022-12-23T01:07:35.912Z,61.24
2022-12-23T01:10:40.123Z,58.90
2022-12-23T01:13:42.970Z,58.27
2022-12-23T01:16:46.375Z,62.06
2022-12-23T01:19:49.240Z,66.50
2022-12-23T01:22:51.968Z,65.13
2022-12-23T01:26:04.741Z,66.09
2022-12-23T01:29:07.601Z,68.19
2022-12-23T01:32:10.546Z,61.78
2022-12-23T01:35:13.441Z,58.31
2022-12-23T01:38:16.265Z,58.47
2022-12-23T01:41:49.657Z,62.78
2022-12-23T01:45:18.628Z,66.12
2022-12-23T01:48:27.341Z,65.77
2022-12-23T01:51:30.372Z,61.50
2022-12-23T01:54:34.517Z,60.50
2022-12-23T01:57:41.289Z,61.86
2022-12-23T02:01:02.878Z,60.12
2022-12-23T02:04:10.238Z,55.63
2022-12-23T02:07:32.790Z,57.11
2022-12-23T02:11:00.798Z,59.87
2022-12-23T02:14:59.977Z,66.37
2022-12-23T02:18:21.238Z,65.00
2022-12-23T02:21:36.392Z,67.17
2022-12-23T02:25:04.310Z,64.34
2022-12-23T02:28:46.087Z,62.82
2022-12-23T02:32:06.990Z,59.96
2022-12-23T02:35:14.736Z,56.42
2022-12-23T02:38:43.694Z,56.71
2022-12-23T02:41:49.223Z,60.05
2022-12-23T02:45:04.354Z,63.69
2022-12-23T02:48:19.127Z,64.57
2022-12-23T02:51:29.019Z,65.36
2022-12-23T02:54:38.836Z,67.54
2022-12-23T02:57:47.055Z,64.39
2022-12-23T03:00:50.073Z,62.68
2022-12-23T03:03:53.141Z,61.27
2022-12-23T03:07:01.694Z,56.86
2022-12-23T03:10:55.774Z,58.28
2022-12-23T03:14:14.016Z,63.56
2022-12-23T03:17:25.657Z,66.29
2022-12-23T03:21:02.714Z,67.30
2022-12-23T03:24:22.966Z,64.92
2022-12-23T03:27:30.448Z,64.37
2022-12-23T03:30:35.594Z,64.50
2022-12-23T03:33:42.604Z,64.53
2022-12-23T03:36:59.061Z,64.51
2022-12-23T03:40:08.620Z,65.22
2022-12-23T03:43:18.795Z,64.35
2022-12-23T03:46:31.445Z,65.37
2022-12-23T03:49:43.960Z,64.86
2022-12-23T03:53:01.355Z,64.35
2022-12-23T03:56:09.543Z,63.61
2022-12-23T03:59:18.857Z,63.49
2022-12-23T04:02:40.262Z,63.61
2022-12-23T04:05:50.613Z,63.77
2022-12-23T04:08:54.140Z,64.24
2022-12-23T04:11:58.355Z,63.61
2022-12-23T04:15:01.294Z,64.11
2022-12-23T04:18:04.154Z,64.80
2022-12-23T04:21:06.964Z,65.03
2022-12-23T04:24:09.769Z,65.41
2022-12-23T04:27:14.839Z,64.96
2022-12-23T04:30:18.683Z,64.97
2022-12-23T04:33:21.563Z,65.33
2022-12-23T04:36:24.387Z,65.50
2022-12-23T04:39:27.265Z,66.21
2022-12-23T04:42:30.153Z,66.25
2022-12-23T04:45:33.365Z,66.45
2022-12-23T04:48:36.174Z,67.06
2022-12-23T04:51:38.964Z,67.86
2022-12-23T04:54:45.987Z,67.92
2022-12-23T04:57:49.224Z,68.65
2022-12-23T05:01:07.368Z,68.35
2022-12-23T05:04:10.731Z,68.10
2022-12-23T05:07:13.533Z,67.57
2022-12-23T05:10:16.477Z,65.81
2022-12-23T05:13:19.328Z,66.44
2022-12-23T05:16:22.194Z,66.88
2022-12-23T05:19:25.085Z,67.70
2022-12-23T05:22:27.946Z,68.49
2022-12-23T05:25:32.647Z,67.90
2022-12-23T05:28:35.757Z,68.12
2022-12-23T05:31:38.674Z,67.56
2022-12-23T05:34:41.536Z,68.29
2022-12-23T05:37:44.347Z,69.25
2022-12-23T05:40:48.239Z,69.47
2022-12-23T05:43:51.084Z,69.64
2022-12-23T05:46:53.964Z,69.45
2022-12-23T05:49:56.769Z,69.64
2022-12-23T05:52:59.594Z,69.59
2022-12-23T05:56:06.518Z,69.57
2022-12-23T05:59:09.500Z,69.83
2022-12-23T06:02:12.445Z,70.18
2022-12-23T06:05:15.373Z,71.10
2022-12-23T06:08:18.396Z,72.15
2022-12-23T06:11:21.445Z,72.13
2022-12-23T06:14:28.874Z,70.28
2022-12-23T06:17:32.532Z,69.40
2022-12-23T06:20:35.423Z,69.31
2022-12-23T06:23:38.208Z,69.75
2022-12-23T06:26:42.680Z,69.83
2022-12-23T06:29:45.665Z,67.95
2022-12-23T06:32:48.521Z,67.17
2022-12-23T06:35:51.313Z,67.03
2022-12-23T06:38:54.163Z,67.04
2022-12-23T06:41:57.031Z,66.75
2022-12-23T06:44:59.807Z,67.00
2022-12-23T06:48:02.678Z,67.32
2022-12-23T06:51:05.694Z,66.85
2022-12-23T06:54:11.931Z,67.19
2022-12-23T06:57:14.636Z,67.40
2022-12-23T07:00:17.707Z,68.04
2022-12-23T07:03:20.544Z,68.37
2022-12-23T07:06:23.496Z,68.29
2022-12-23T07:09:26.507Z,68.34
2022-12-23T07:12:29.422Z,67.97
2022-12-23T07:15:32.275Z,68.51
2022-12-23T07:18:35.510Z,68.63
2022-12-23T07:21:38.837Z,67.95
2022-12-23T07:24:41.625Z,67.47
2022-12-23T07:27:44.535Z,66.06
2022-12-23T07:30:47.526Z,66.21
2022-12-23T07:33:50.391Z,67.80
2022-12-23T07:36:54.005Z,69.01
2022-12-23T07:39:56.827Z,68.52
2022-12-23T07:42:59.916Z,69.57
2022-12-23T07:46:07.595Z,70.91
2022-12-23T07:49:10.579Z,72.03
2022-12-23T07:52:13.382Z,72.71
2022-12-23T07:55:16.470Z,73.26
2022-12-23T07:58:19.639Z,73.93
2022-12-23T08:01:23.048Z,74.11
2022-12-23T08:04:25.939Z,74.52
2022-12-23T08:07:28.849Z,75.11
2022-12-23T08:10:31.653Z,75.62
2022-12-23T08:13:37.604Z,75.96
2022-12-23T08:16:44.019Z,75.82
2022-12-23T08:19:48.594Z,75.50
2022-12-23T08:22:51.524Z,74.81
2022-12-23T08:26:03.845Z,74.07
2022-12-23T08:29:06.732Z,73.15
2022-12-23T08:32:09.718Z,72.51
2022-12-23T08:35:12.474Z,72.21
2022-12-23T08:38:15.265Z,72.25
2022-12-23T08:41:22.154Z,72.44
2022-12-23T08:44:29.970Z,72.07
2022-12-23T08:47:33.688Z,72.04
2022-12-23T08:50:38.570Z,71.92
2022-12-23T08:53:41.725Z,71.85
2022-12-23T08:56:44.897Z,71.90
2022-12-23T08:59:47.919Z,71.46
2022-12-23T09:02:51.026Z,71.99
2022-12-23T09:05:54.119Z,70.77
2022-12-23T09:08:57.655Z,68.34
2022-12-23T09:12:00.414Z,68.14
2022-12-23T09:15:03.569Z,68.52
2022-12-23T09:18:06.374Z,69.61
2022-12-23T09:21:15.087Z,70.41
2022-12-23T09:24:18.022Z,71.24
2022-12-23T09:27:20.852Z,71.88
2022-12-23T09:30:23.825Z,71.95
2022-12-23T09:33:26.661Z,71.94
2022-12-23T09:36:30.045Z,72.51
2022-12-23T09:39:33.627Z,71.81
2022-12-23T09:42:51.570Z,71.09
2022-12-23T09:46:00.351Z,71.37
2022-12-23T09:49:13.603Z,71.78
2022-12-23T09:52:23.273Z,71.51
2022-12-23T09:55:40.469Z,72.01
2022-12-23T09:58:53.089Z,72.04
2022-12-23T10:02:11.476Z,72.28
2022-12-23T10:05:26.871Z,72.47
2022-12-23T10:08:45.182Z,72.29
2022-12-23T10:11:54.071Z,72.26
2022-12-23T10:15:01.272Z,72.62
2022-12-23T10:18:12.478Z,72.75
2022-12-23T10:21:31.257Z,72.69
2022-12-23T10:24:38.935Z,72.85
2022-12-23T10:27:44.333Z,73.09
2022-12-23T10:34:38.692Z,73.22
2022-12-23T10:37:49.268Z,73.15
2022-12-23T10:41:09.705Z,73.58
2022-12-23T10:44:28.148Z,73.50
2022-12-23T10:48:05.126Z,73.06
2022-12-23T10:51:19.947Z,73.30
2022-12-23T10:54:34.672Z,73.29
2022-12-23T10:57:37.827Z,73.18
2022-12-23T11:00:45.641Z,72.84
2022-12-23T11:03:55.779Z,72.52
2022-12-23T11:07:26.267Z,72.55
2022-12-23T11:10:25.787Z,72.41
2022-12-23T11:13:43.356Z,72.32
2022-12-23T11:16:47.191Z,71.93
2022-12-23T11:20:13.203Z,71.75
2022-12-23T11:23:31.328Z,72.37
2022-12-23T11:26:35.691Z,71.17
2022-12-23T11:29:50.183Z,70.00
2022-12-23T11:32:53.278Z,69.20
2022-12-23T11:36:08.748Z,66.88
2022-12-23T11:39:24.440Z,66.84
2022-12-23T11:42:30.356Z,65.64
2022-12-23T11:45:36.079Z,63.26
2022-12-23T11:48:39.882Z,61.08
2022-12-23T11:51:45.234Z,57.99
2022-12-23T11:54:57.041Z,59.39
2022-12-23T11:58:01.785Z,63.15
2022-12-23T12:01:15.785Z,64.46
2022-12-23T12:04:24.629Z,60.31
2022-12-23T12:07:29.146Z,58.49
2022-12-23T12:10:36.482Z,59.37
2022-12-23T12:13:45.574Z,62.47
2022-12-23T12:17:02.606Z,64.77
2022-12-23T12:20:20.981Z,61.72
2022-12-23T12:23:45.888Z,56.76
2022-12-23T12:26:52.907Z,58.95
2022-12-23T12:30:08.360Z,61.93
2022-12-23T12:33:19.560Z,65.57
2022-12-23T12:36:33.470Z,62.57
2022-12-23T12:39:42.474Z,61.62
2022-12-23T12:42:55.700Z,60.39
2022-12-23T12:46:21.706Z,56.56
2022-12-23T12:49:57.162Z,59.51
2022-12-23T12:53:10.363Z,63.65
2022-12-23T12:56:25.570Z,65.84
2022-12-23T12:59:33.986Z,58.93
2022-12-23T13:03:08.169Z,55.78
2022-12-23T13:06:36.652Z,60.18
2022-12-23T13:10:01.331Z,64.57
2022-12-23T13:13:23.229Z,61.58
2022-12-23T13:16:57.529Z,56.03
2022-12-23T13:20:22.127Z,57.53
2022-12-23T13:23:45.090Z,61.13
2022-12-23T13:26:59.215Z,65.72
2022-12-23T13:30:20.332Z,62.13
2022-12-23T13:33:39.312Z,58.43
2022-12-23T13:37:17.164Z,60.99
2022-12-23T13:40:51.949Z,64.41
2022-12-23T13:44:06.568Z,61.20
2022-12-23T13:47:32.223Z,56.85
2022-12-23T13:50:53.789Z,58.90
2022-12-23T13:54:25.240Z,65.16
2022-12-23T13:57:54.493Z,62.79
2022-12-23T14:01:22.264Z,59.26
2022-12-23T14:04:36.188Z,58.03
2022-12-23T14:07:56.282Z,60.25
2022-12-23T14:11:18.777Z,65.43
2022-12-23T14:14:25.236Z,65.40
2022-12-23T14:17:45.373Z,61.58
2022-12-23T14:21:02.211Z,57.95
2022-12-23T14:24:36.423Z,62.03
2022-12-23T14:28:01.569Z,66.00
2022-12-23T14:31:05.869Z,62.48
2022-12-23T14:34:18.034Z,61.32
2022-12-23T14:37:20.800Z,61.62
2022-12-23T14:40:39.026Z,61.75
2022-12-23T14:43:45.764Z,61.24
2022-12-23T14:46:48.709Z,60.09
2022-12-23T14:49:51.711Z,58.13
2022-12-23T14:53:00.296Z,60.63
2022-12-23T14:56:16.924Z,64.72
2022-12-23T14:59:32.769Z,63.03
2022-12-23T15:02:39.229Z,61.58
2022-12-23T15:05:42.975Z,60.97
2022-12-23T15:08:50.554Z,60.45
2022-12-23T15:11:56.142Z,60.16
2022-12-23T15:15:03.504Z,60.48
2022-12-23T15:18:12.431Z,61.63
2022-12-23T15:21:15.295Z,63.44
2022-12-23T15:24:21.871Z,63.94
2022-12-23T15:27:28.378Z,64.17
2022-12-23T15:30:46.023Z,64.68
2022-12-23T15:34:02.795Z,64.40
2022-12-23T15:37:12.487Z,65.18
2022-12-23T15:40:38.120Z,65.72
2022-12-23T15:43:42.714Z,65.49
2022-12-23T15:46:45.658Z,66.78
2022-12-23T15:49:48.573Z,67.77
2022-12-23T15:52:54.660Z,67.28
2022-12-23T15:55:57.511Z,66.65
2022-12-23T15:59:01.916Z,67.87
2022-12-23T16:02:58.395Z,66.79
2022-12-23T16:05:44.957Z,66.34
2022-12-23T16:09:01.297Z,65.18
2022-12-23T16:12:18.765Z,64.42
2022-12-23T16:15:33.315Z,64.38
2022-12-23T16:18:47.214Z,64.41
2022-12-23T16:21:50.914Z,64.19
2022-12-23T16:25:11.304Z,64.71
2022-12-23T16:28:24.429Z,63.73
2022-12-23T16:31:28.248Z,64.57
2022-12-23T16:34:31.644Z,65.70
2022-12-23T16:37:34.403Z,67.19
2022-12-23T16:40:37.295Z,66.85
2022-12-23T16:43:43.337Z,65.84
2022-12-23T16:46:52.513Z,64.89
2022-12-23T16:49:55.407Z,64.96
2022-12-23T16:52:58.212Z,64.88
2022-12-23T16:56:01.527Z,63.80
2022-12-23T16:59:04.933Z,64.38
2022-12-23T17:02:21.317Z,64.81
2022-12-23T17:05:24.412Z,65.90
2022-12-23T17:08:27.887Z,66.74
2022-12-23T17:11:39.887Z,68.11
2022-12-23T17:14:42.788Z,67.15
2022-12-23T17:17:46.019Z,67.40
2022-12-23T17:20:49.356Z,72.23
2022-12-23T17:23:56.811Z,71.07
2022-12-23T17:26:59.682Z,63.64
2022-12-23T17:30:02.461Z,61.47
2022-12-23T17:33:05.441Z,59.36
2022-12-23T17:36:11.170Z,56.46
2022-12-23T17:39:14.237Z,59.04
2022-12-23T17:42:25.288Z,60.28
2022-12-23T17:45:30.739Z,62.91
2022-12-23T17:48:33.576Z,69.79
2022-12-23T17:51:38.474Z,67.67
2022-12-23T17:54:42.197Z,60.82
2022-12-23T17:57:45.159Z,58.17
2022-12-23T18:00:48.001Z,58.28
2022-12-23T18:03:51.509Z,60.32
2022-12-23T18:06:54.310Z,64.42
2022-12-23T18:09:57.171Z,66.91
2022-12-23T18:13:02.922Z,64.63
2022-12-23T18:16:05.803Z,64.25
2022-12-23T18:19:19.946Z,66.86
2022-12-23T18:22:24.802Z,67.06
2022-12-23T18:25:27.761Z,66.01
2022-12-23T18:28:30.791Z,64.19
2022-12-23T18:31:34.306Z,63.78
2022-12-23T18:34:41.434Z,63.07
2022-12-23T18:37:44.454Z,63.25
2022-12-23T18:40:49.752Z,61.75
2022-12-23T18:43:53.422Z,60.62
2022-12-23T18:46:56.290Z,61.95
2022-12-23T18:49:59.206Z,60.03
2022-12-23T18:53:02.086Z,55.66
2022-12-23T18:56:04.978Z,56.28
2022-12-23T18:59:16.165Z,59.30
2022-12-23T19:02:19.114Z,61.81
2022-12-23T19:05:34.372Z,68.11
2022-12-23T19:08:37.840Z,68.03
2022-12-23T19:11:40.638Z,65.28
2022-12-23T19:14:43.399Z,64.31
2022-12-23T19:17:47.139Z,64.17
2022-12-23T19:20:50.114Z,63.56
2022-12-23T19:23:52.833Z,64.07
2022-12-23T19:26:55.776Z,62.44
2022-12-23T19:29:59.193Z,60.88
2022-12-23T19:33:02.054Z,57.03
2022-12-23T19:36:17.064Z,58.84
2022-12-23T19:39:21.971Z,61.10
2022-12-23T19:42:25.086Z,65.33
2022-12-23T19:45:28.163Z,66.54
2022-12-23T19:48:31.285Z,65.35
2022-12-23T19:51:34.173Z,64.88
2022-12-23T19:54:36.984Z,65.15
2022-12-23T19:57:39.935Z,65.42
2022-12-23T20:00:42.716Z,65.50
2022-12-23T20:03:47.216Z,65.60
2022-12-23T20:06:50.081Z,65.41
2022-12-23T20:09:53.278Z,65.17
2022-12-23T20:12:56.172Z,65.27
2022-12-23T20:15:59.293Z,65.01
2022-12-23T20:19:03.203Z,67.16
2022-12-23T20:22:06.016Z,66.21
2022-12-23T20:25:09.158Z,62.74
2022-12-23T20:28:12.241Z,62.38
2022-12-23T20:31:19.355Z,62.54
2022-12-23T20:34:22.220Z,62.45
2022-12-23T20:37:25.013Z,62.65
2022-12-23T20:40:28.058Z,62.51
2022-12-23T20:43:31.394Z,62.71
2022-12-23T20:46:34.256Z,63.23
2022-12-23T20:49:37.248Z,59.70
2022-12-23T20:52:40.176Z,60.02
2022-12-23T20:55:43.052Z,60.91
2022-12-23T20:58:54.930Z,61.84
2022-12-23T21:01:59.506Z,61.94
2022-12-23T21:05:02.664Z,62.39
2022-12-23T21:08:06.219Z,62.75
2022-12-23T21:11:09.233Z,63.10
2022-12-23T21:14:13.502Z,63.75
2022-12-23T21:17:16.411Z,61.66
2022-12-23T21:20:19.245Z,61.08
2022-12-23T21:23:22.000Z,61.41
2022-12-23T21:26:28.293Z,61.78
2022-12-23T21:29:31.018Z,62.44
2022-12-23T21:32:33.910Z,62.35
2022-12-23T21:35:36.815Z,62.98
2022-12-23T21:38:42.300Z,63.32
2022-12-23T21:41:46.120Z,63.35
2022-12-23T21:44:49.393Z,63.25
2022-12-23T21:47:52.383Z,64.49
2022-12-23T21:50:55.635Z,65.01
2022-12-23T21:53:59.880Z,65.67
2022-12-23T21:57:02.765Z,64.68
2022-12-23T22:00:06.452Z,65.25
2022-12-23T22:03:09.408Z,64.91
2022-12-23T22:06:26.459Z,64.85
2022-12-23T22:09:29.908Z,65.02
2022-12-23T22:12:32.819Z,65.44
2022-12-23T22:15:40.651Z,65.48
2022-12-23T22:18:44.304Z,66.05
2022-12-23T22:21:47.069Z,66.05
2022-12-23T22:24:49.938Z,66.71
2022-12-23T22:27:52.748Z,66.13
2022-12-23T22:31:01.709Z,67.27
2022-12-23T22:34:06.356Z,66.22
2022-12-23T22:37:09.217Z,66.31
2022-12-23T22:40:12.342Z,66.72
2022-12-23T22:43:15.484Z,68.22
2022-12-23T22:46:18.619Z,68.57
2022-12-23T22:49:21.700Z,62.52
2022-12-23T22:52:24.517Z,59.39
2022-12-23T22:55:27.450Z,59.52
2022-12-23T22:58:32.455Z,64.27
2022-12-23T23:01:36.493Z,65.10
2022-12-23T23:04:39.448Z,64.34
2022-12-23T23:07:43.340Z,63.16
2022-12-23T23:10:46.241Z,62.60
2022-12-23T23:13:49.223Z,62.92
2022-12-23T23:16:54.088Z,63.18
2022-12-23T23:19:57.023Z,63.45
2022-12-23T23:22:59.849Z,64.24
2022-12-23T23:26:03.751Z,64.90
2022-12-23T23:29:06.592Z,65.50
2022-12-23T23:32:09.817Z,66.07
2022-12-23T23:35:12.908Z,66.47
2022-12-23T23:38:15.849Z,67.34
2022-12-23T23:41:22.934Z,68.54
2022-12-23T23:44:26.698Z,67.04
2022-12-23T23:47:34.492Z,66.34
2022-12-23T23:50:37.702Z,66.25
2022-12-23T23:53:40.788Z,65.73
2022-12-23T23:56:43.660Z,64.57
2022-12-23T23:59:46.516Z,64.64
